Time;durP1;ratioP1;P1;durP2;ratioP2;P2;SDS_P1;SDS_P2;PMS_P1;PMS_P2;Temp;Humidity;BMP_temperature;BMP_pressure;BME280_temperature;BME280_humidity;BME280_pressure;Samples;Min_cycle;Max_cycle;Signal;HPM_P1;HPM_P2
2023/02/20 00:00:00;;;;;;;3.43;2.33;;;;;;;;;;5067628;23;21117;-52
2023/02/20 00:02:26;;;;;;;4.00;2.47;;;;;;;;;;5029595;28;20175;-56
2023/02/20 00:04:51;;;;;;;4.70;2.03;;;8.80;99.90;;;;;;5028993;28;20183;-55
2023/02/20 00:07:17;;;;;;;2.40;1.90;;;8.90;99.90;;;;;;5030340;28;20180;-51
2023/02/20 00:09:43;;;;;;;3.30;2.10;;;;;;;;;;5023595;28;20287;-55
2023/02/20 00:12:09;;;;;;;3.63;1.97;;;;;;;;;;5014898;28;20191;-54
2023/02/20 00:14:35;;;;;;;3.90;1.80;;;;;;;;;;5014958;28;20184;-55
2023/02/20 00:17:01;;;;;;;4.80;2.00;;;;;;;;;;5008157;28;20181;-52
2023/02/20 00:19:27;;;;;;;4.03;2.10;;;;;;;;;;5012899;28;20395;-56
2023/02/20 00:21:53;;;;;;;4.27;2.03;;;9.40;99.90;;;;;;5014693;28;20176;-54
2023/02/20 00:24:19;;;;;;;3.67;2.20;;;9.50;99.90;;;;;;5014664;28;20257;-51
2023/02/20 00:26:46;;;;;;;3.70;1.90;;;9.70;99.90;;;;;;5014518;28;20268;-53
2023/02/20 00:29:20;;;;;;;2.40;1.80;;;9.40;99.90;;;;;;5014514;28;20251;-51
2023/02/20 00:31:54;;;;;;;5.27;2.23;;;9.50;99.90;;;;;;5014628;28;20168;-56
2023/02/20 00:34:21;;;;;;;2.13;1.90;;;9.50;99.90;;;;;;5007218;28;20656;-54
2023/02/20 00:36:47;;;;;;;2.67;1.70;;;;;;;;;;5014112;28;20177;-52
2023/02/20 00:39:13;;;;;;;4.13;2.20;;;9.70;99.90;;;;;;5013753;28;20275;-53
2023/02/20 00:41:39;;;;;;;1.70;1.60;;;;;;;;;;5014512;28;20267;-52
2023/02/20 00:44:05;;;;;;;2.43;1.83;;;;;;;;;;5014395;28;20185;-55
2023/02/20 00:46:31;;;;;;;3.63;1.90;;;9.00;99.90;;;;;;5014102;28;20235;-53
2023/02/20 00:48:56;;;;;;;3.37;2.30;;;;;;;;;;5013649;28;20214;-56
2023/02/20 00:51:22;;;;;;;4.83;2.60;;;8.90;99.90;;;;;;5014253;28;20234;-52
2023/02/20 00:53:48;;;;;;;3.57;2.27;;;8.90;99.90;;;;;;5014249;28;20173;-52
2023/02/20 00:56:13;;;;;;;2.93;2.10;;;8.70;99.90;;;;;;5014107;28;20539;-55
2023/02/20 00:58:39;;;;;;;2.83;2.10;;;;;;;;;;5013927;28;20180;-55
2023/02/20 01:01:05;;;;;;;3.30;2.23;;;;;;;;;;5013902;28;20726;-57
2023/02/20 01:03:31;;;;;;;2.53;2.10;;;;;;;;;;5012856;28;20200;-57
2023/02/20 01:05:57;;;;;;;2.63;2.00;;;8.90;99.90;;;;;;5013860;28;20547;-55
2023/02/20 01:08:23;;;;;;;2.73;2.03;;;9.10;99.90;;;;;;5007436;28;20845;-55
2023/02/20 01:10:48;;;;;;;3.07;2.10;;;8.60;99.90;;;;;;5013675;28;20287;-53
2023/02/20 01:13:14;;;;;;;2.10;1.90;;;8.70;99.90;;;;;;5013781;28;20169;-57
2023/02/20 01:15:40;;;;;;;4.13;2.50;;;;;;;;;;5013637;28;20165;-53
2023/02/20 01:18:06;;;;;;;2.57;2.10;;;;;;;;;;5013374;28;20230;-54
2023/02/20 01:20:32;;;;;;;3.93;2.30;;;;;;;;;;5013168;28;20204;-57
2023/02/20 01:22:58;;;;;;;3.73;2.33;;;;;;;;;;5013612;28;20219;-57
2023/02/20 01:25:24;;;;;;;3.17;2.10;;;;;;;;;;4996620;28;20247;-54
2023/02/20 01:27:50;;;;;;;2.43;2.23;;;8.70;99.90;;;;;;5003349;28;20319;-53
2023/02/20 01:30:16;;;;;;;2.23;2.03;;;8.50;99.90;;;;;;5010260;28;20741;-50
2023/02/20 01:32:41;;;;;;;3.03;2.30;;;;;;;;;;5009959;28;20746;-52
2023/02/20 01:35:08;;;;;;;4.17;2.50;;;;;;;;;;5013158;28;20211;-53
2023/02/20 01:37:34;;;;;;;2.90;2.70;;;8.30;99.90;;;;;;5013094;28;20260;-51
2023/02/20 01:39:59;;;;;;;4.77;3.17;;;7.70;99.90;;;;;;5013315;28;20268;-55
2023/02/20 01:42:28;;;;;;;4.93;2.83;;;8.60;99.90;;;;;;5005788;28;20558;-55
2023/02/20 01:44:54;;;;;;;4.33;2.87;;;;;;;;;;5012827;28;20195;-53
2023/02/20 01:47:22;;;;;;;4.63;2.80;;;7.80;99.90;;;;;;5012314;28;20177;-56
2023/02/20 01:49:56;;;;;;;4.53;3.03;;;7.60;99.90;;;;;;5012130;28;20195;-56
2023/02/20 01:52:27;;;;;;;3.33;2.80;;;7.80;99.90;;;;;;5012179;28;20180;-57
2023/02/20 01:55:04;;;;;;;3.33;2.70;;;7.70;99.90;;;;;;5013038;28;20263;-51
2023/02/20 01:57:34;;;;;;;3.83;2.90;;;8.00;99.90;;;;;;5011600;28;20191;-54
2023/02/20 02:00:08;;;;;;;3.90;2.90;;;7.80;99.90;;;;;;5007271;28;20212;-57
2023/02/20 02:02:39;;;;;;;4.93;3.53;;;7.80;99.90;;;;;;5012559;28;20670;-60
2023/02/20 02:05:08;;;;;;;3.93;2.90;;;7.70;99.90;;;;;;5012168;28;20183;-55
2023/02/20 02:07:34;;;;;;;4.30;2.77;;;7.90;99.90;;;;;;5012427;28;20200;-57
2023/02/20 02:10:07;;;;;;;3.17;2.77;;;8.00;99.90;;;;;;5012528;28;20192;-56
2023/02/20 02:12:33;;;;;;;4.53;3.07;;;7.70;99.90;;;;;;5028057;28;20176;-56
2023/02/20 02:14:59;;;;;;;6.63;3.30;;;7.80;99.90;;;;;;5012435;28;20632;-56
2023/02/20 02:17:47;;;;;;;3.93;3.03;;;7.50;99.90;;;;;;5012063;28;20180;-56
2023/02/20 02:20:13;;;;;;;4.83;3.17;;;;;;;;;;5012368;28;20227;-59
2023/02/20 02:23:18;;;;;;;6.43;3.30;;;7.90;99.90;;;;;;5012464;28;20212;-59
2023/02/20 02:25:47;;;;;;;5.27;3.27;;;7.60;99.90;;;;;;5012519;28;20183;-55
2023/02/20 02:28:56;;;;;;;3.77;3.10;;;8.10;99.90;;;;;;5011889;28;20211;-57
2023/02/20 02:31:22;;;;;;;4.73;3.03;;;;;;;;;;5011632;28;20173;-58
2023/02/20 02:34:15;;;;;;;4.03;3.23;;;8.20;99.90;;;;;;5004937;28;20706;-60
2023/02/20 02:36:49;;;;;;;3.57;2.93;;;7.90;99.90;;;;;;5012005;28;20188;-52
2023/02/20 02:39:28;;;;;;;5.27;3.43;;;7.80;99.90;;;;;;5011979;28;20655;-58
2023/02/20 02:42:10;;;;;;;3.90;3.50;;;8.10;99.90;;;;;;5012162;28;20183;-57
2023/02/20 02:44:54;;;;;;;4.57;3.37;;;7.60;99.90;;;;;;5012051;28;20644;-58
2023/02/20 02:48:01;;;;;;;5.77;3.60;;;8.00;99.90;;;;;;5007557;28;20243;-56
2023/02/20 02:50:33;;;;;;;5.93;3.33;;;8.00;99.90;;;;;;5007970;28;20214;-58
2023/02/20 02:52:59;;;;;;;4.80;3.20;;;;;;;;;;5010324;28;20640;-58
2023/02/20 02:55:27;;;;;;;5.17;3.27;;;8.10;99.90;;;;;;5011695;28;20180;-54
2023/02/20 02:57:54;;;;;;;4.30;3.33;;;8.30;99.90;;;;;;5004369;28;20173;-53
2023/02/20 03:00:27;;;;;;;7.17;3.77;;;8.10;99.90;;;;;;5011491;28;20220;-54
2023/02/20 03:02:53;;;;;;;6.20;3.83;;;;;;;;;;5011556;28;20662;-57
2023/02/20 03:05:23;;;;;;;4.03;3.47;;;8.00;99.90;;;;;;5009591;28;20239;-58
2023/02/20 03:07:54;;;;;;;6.37;3.60;;;8.00;99.90;;;;;;5011395;28;20552;-56
2023/02/20 03:10:30;;;;;;;3.93;3.20;;;7.90;99.90;;;;;;5010853;28;20203;-56
2023/02/20 03:13:01;;;;;;;4.67;3.53;;;7.90;99.90;;;;;;5011770;28;20254;-58
2023/02/20 03:15:40;;;;;;;5.40;4.03;;;7.40;99.90;;;;;;5011894;28;20184;-57
2023/02/20 03:18:35;;;;;;;4.53;3.77;;;7.40;99.90;;;;;;5011317;28;20662;-57
2023/02/20 03:21:10;;;;;;;6.20;4.10;;;7.80;99.90;;;;;;5011627;28;20176;-56
2023/02/20 03:23:41;;;;;;;5.97;3.70;;;8.30;99.90;;;;;;5010268;28;20655;-55
2023/02/20 03:26:18;;;;;;;6.23;4.07;;;7.80;99.90;;;;;;5011508;28;20239;-58
2023/02/20 03:28:49;;;;;;;5.53;4.17;;;8.30;99.90;;;;;;5011220;28;20203;-59
2023/02/20 03:31:25;;;;;;;6.67;4.10;;;7.90;99.90;;;;;;5011468;28;20226;-54
2023/02/20 03:45:27;;;;;;;6.63;4.40;;;7.70;99.90;;;;;;5015777;28;20234;-58
2023/02/20 03:47:58;;;;;;;5.73;3.80;;;7.70;99.90;;;;;;5014794;28;20200;-59
2023/02/20 03:53:09;;;;;;;5.33;4.03;;;;;;;;;;5013878;28;20243;-60
2023/02/20 03:55:35;;;;;;;7.57;4.60;;;;;;;;;;5013226;28;20223;-56
2023/02/20 03:58:06;;;;;;;6.23;4.27;;;7.70;99.90;;;;;;5013206;28;20177;-58
2023/02/20 04:00:35;;;;;;;6.00;4.13;;;7.70;99.90;;;;;;5014279;28;20221;-59
2023/02/20 04:03:09;;;;;;;6.37;3.80;;;7.80;99.90;;;;;;5014686;28;20706;-56
2023/02/20 04:05:39;;;;;;;5.03;4.13;;;8.00;99.90;;;;;;5015203;28;20234;-57
2023/02/20 04:08:11;;;;;;;5.30;3.73;;;7.90;99.90;;;;;;5014772;28;20215;-59
2023/02/20 04:10:45;;;;;;;4.83;4.10;;;7.80;99.90;;;;;;5014178;28;20200;-62
2023/02/20 04:13:14;;;;;;;7.80;3.73;;;7.80;99.90;;;;;;5002567;28;20185;-58
2023/02/20 04:15:40;;;;;;;5.53;3.77;;;;;;;;;;5010203;28;20644;-57
2023/02/20 04:18:17;;;;;;;4.90;3.60;;;7.70;99.90;;;;;;5013729;28;20192;-59
2023/02/20 04:20:43;;;;;;;4.97;3.73;;;;;;;;;;5013070;28;20216;-61
2023/02/20 04:23:17;;;;;;;6.30;3.60;;;7.60;99.90;;;;;;5014715;28;20181;-60
2023/02/20 04:25:43;;;;;;;5.97;3.87;;;;;;;;;;5014515;28;20191;-60
2023/02/20 04:28:10;;;;;;;6.33;3.83;;;7.80;99.90;;;;;;5011021;28;20211;-58
2023/02/20 04:30:36;;;;;;;6.97;3.90;;;;;;;;;;5012536;28;20196;-60
2023/02/20 04:33:02;;;;;;;7.13;3.90;;;;;;;;;;5013825;28;20619;-60
2023/02/20 04:35:28;;;;;;;7.03;3.83;;;8.10;99.90;;;;;;5013885;28;20260;-58
2023/02/20 04:37:54;;;;;;;4.90;3.63;;;;;;;;;;5013990;28;20234;-59
2023/02/20 04:40:21;;;;;;;4.83;3.30;;;8.00;99.90;;;;;;5014116;28;20215;-58
2023/02/20 04:42:47;;;;;;;4.83;3.60;;;;;;;;;;5014020;28;20659;-58
2023/02/20 04:45:13;;;;;;;5.83;3.40;;;7.80;99.90;;;;;;5010994;28;20189;-59
2023/02/20 04:47:38;;;;;;;5.13;3.60;;;7.90;99.90;;;;;;5011897;28;20719;-57
2023/02/20 04:50:04;;;;;;;5.67;3.97;;;8.30;99.90;;;;;;5013356;28;20266;-54
2023/02/20 04:52:30;;;;;;;6.30;3.90;;;;;;;;;;5013910;28;20188;-55
2023/02/20 04:54:56;;;;;;;4.70;3.70;;;;;;;;;;5013130;28;20552;-56
2023/02/20 04:57:22;;;;;;;5.03;3.77;;;;;;;;;;5013521;28;20610;-54
2023/02/20 04:59:48;;;;;;;4.57;3.57;;;;;;;;;;5013594;28;20595;-54
2023/02/20 05:02:14;;;;;;;4.60;3.37;;;7.90;99.90;;;;;;5013780;28;20184;-52
2023/02/20 05:04:40;;;;;;;4.93;3.00;;;7.90;99.90;;;;;;5013643;28;20178;-55
2023/02/20 05:07:06;;;;;;;4.43;2.80;;;8.30;99.90;;;;;;5013326;28;20184;-53
2023/02/20 05:09:31;;;;;;;4.87;3.20;;;7.80;99.90;;;;;;5013282;28;20313;-53
2023/02/20 05:11:57;;;;;;;3.40;2.87;;;;;;;;;;5013491;28;20184;-56
2023/02/20 05:14:23;;;;;;;4.03;2.97;;;;;;;;;;5013428;28;20180;-57
2023/02/20 05:16:52;;;;;;;3.97;2.80;;;;;;;;;;5012959;28;20246;-57
2023/02/20 05:19:18;;;;;;;3.47;3.07;;;;;;;;;;5009577;28;20208;-57
2023/02/20 05:24:30;;;;;;;3.57;3.00;;;7.60;99.90;;;;;;5013613;28;20199;-55
2023/02/20 05:26:56;;;;;;;4.73;2.87;;;;;;;;;;5013164;28;20199;-54
2023/02/20 05:29:22;;;;;;;5.97;2.83;;;;;;;;;;5013242;28;20227;-55
2023/02/20 05:31:48;;;;;;;5.20;3.37;;;7.60;99.90;;;;;;5012704;28;20220;-53
2023/02/20 05:34:14;;;;;;;4.63;3.00;;;;;;;;;;5012000;28;20188;-58
2023/02/20 05:36:39;;;;;;;6.33;3.17;;;7.60;99.90;;;;;;5012619;28;20184;-54
2023/02/20 05:39:06;;;;;;;6.47;3.37;;;;;;;;;;5012437;28;20219;-53
2023/02/20 05:41:32;;;;;;;3.50;3.00;;;;;;;;;;5012829;28;20192;-55
2023/02/20 05:43:58;;;;;;;4.53;2.97;;;8.00;99.90;;;;;;5012838;28;20187;-57
2023/02/20 05:46:25;;;;;;;5.20;3.23;;;7.90;99.90;;;;;;5012749;28;20200;-53
2023/02/20 05:48:53;;;;;;;4.47;3.10;;;8.00;99.90;;;;;;5011771;28;20215;-56
2023/02/20 05:51:28;;;;;;;4.70;3.17;;;7.90;99.90;;;;;;5011884;28;20173;-56
2023/02/20 05:53:55;;;;;;;4.03;2.90;;;;;;;;;;5011840;28;20547;-55
2023/02/20 05:56:21;;;;;;;5.00;3.00;;;8.30;99.90;;;;;;5012615;28;20690;-57
2023/02/20 05:58:47;;;;;;;5.17;3.50;;;;;;;;;;5012247;28;20229;-56
2023/02/20 06:01:20;;;;;;;4.00;3.13;;;8.20;99.90;;;;;;5075259;22;20261;-53
2023/02/20 06:03:46;;;;;;;5.03;3.23;;;7.80;99.90;;;;;;5033066;28;20270;-55
2023/02/20 06:06:12;;;;;;;5.27;3.40;;;;;;;;;;5051524;28;20570;-56
2023/02/20 06:08:39;;;;;;;4.20;3.07;;;8.00;99.90;;;;;;5051452;28;20277;-57
2023/02/20 06:11:05;;;;;;;5.40;3.33;;;;;;;;;;5051807;28;20198;-54
2023/02/20 06:13:30;;;;;;;5.53;2.90;;;8.30;99.90;;;;;;5051761;28;20549;-57
2023/02/20 06:15:56;;;;;;;4.47;2.90;;;;;;;;;;5051788;28;20210;-57
2023/02/20 06:18:22;;;;;;;5.30;3.37;;;;;;;;;;5050035;28;20186;-58
2023/02/20 06:20:48;;;;;;;5.50;3.53;;;7.80;99.90;;;;;;5051008;28;20199;-58
2023/02/20 06:23:13;;;;;;;4.33;3.63;;;7.50;99.90;;;;;;5051112;28;20195;-56
2023/02/20 06:25:39;;;;;;;4.53;3.03;;;;;;;;;;5051537;28;20179;-55
2023/02/20 06:28:05;;;;;;;3.93;3.20;;;;;;;;;;5051040;28;20206;-54
2023/02/20 06:30:31;;;;;;;6.63;3.30;;;;;;;;;;5051202;28;20195;-57
2023/02/20 06:32:57;;;;;;;6.47;3.47;;;;;;;;;;5050599;28;20702;-58
2023/02/20 06:35:23;;;;;;;5.70;3.27;;;;;;;;;;5050502;28;20217;-55
2023/02/20 06:37:49;;;;;;;5.03;3.13;;;;;;;;;;5049941;28;20278;-59
2023/02/20 06:40:15;;;;;;;3.30;2.60;;;;;;;;;;5051347;28;20203;-55
2023/02/20 06:42:41;;;;;;;7.33;3.77;;;;;;;;;;5051316;28;20190;-53
2023/02/20 06:45:06;;;;;;;5.40;3.20;;;7.50;99.90;;;;;;5051514;28;20179;-58
2023/02/20 06:47:32;;;;;;;6.27;3.20;;;8.00;99.90;;;;;;5050443;28;20179;-54
2023/02/20 06:49:58;;;;;;;5.30;2.80;;;7.80;99.90;;;;;;5050554;28;20205;-57
2023/02/20 06:52:24;;;;;;;4.13;3.30;;;;;;;;;;5051293;28;20182;-53
2023/02/20 06:54:51;;;;;;;5.70;3.27;;;7.90;99.90;;;;;;5051109;28;20186;-55
2023/02/20 06:57:17;;;;;;;5.47;3.10;;;;;;;;;;5050984;28;20241;-58
2023/02/20 06:59:46;;;;;;;5.10;3.53;;;8.30;99.90;;;;;;5050892;28;20300;-54
2023/02/20 07:02:13;;;;;;;3.80;3.10;;;8.40;99.90;;;;;;5050971;28;20668;-53
2023/02/20 07:04:38;;;;;;;7.27;3.00;;;7.80;99.90;;;;;;5050966;28;20290;-59
2023/02/20 07:07:04;;;;;;;3.93;2.70;;;;;;;;;;5050755;28;20270;-57
2023/02/20 07:09:30;;;;;;;3.40;2.80;;;8.00;99.90;;;;;;5050634;28;20577;-56
2023/02/20 07:11:56;;;;;;;4.03;3.10;;;;;;;;;;5050942;28;20172;-54
2023/02/20 07:14:22;;;;;;;4.27;3.10;;;8.10;99.90;;;;;;5051020;28;20179;-57
2023/02/20 07:16:48;;;;;;;4.87;3.20;;;8.30;99.90;;;;;;5050191;28;20171;-56
2023/02/20 07:19:13;;;;;;;6.07;3.20;;;8.30;99.90;;;;;;5049820;28;20258;-57
2023/02/20 07:21:39;;;;;;;4.63;3.30;;;;;;;;;;5050643;28;20213;-57
2023/02/20 07:24:05;;;;;;;3.20;2.63;;;8.40;99.90;;;;;;5050814;28;20187;-57
2023/02/20 07:26:32;;;;;;;4.47;2.87;;;;;;;;;;5050633;28;20191;-56
2023/02/20 07:28:58;;;;;;;5.73;3.10;;;8.10;99.90;;;;;;5050356;28;20195;-56
2023/02/20 07:31:24;;;;;;;3.20;2.57;;;8.10;99.90;;;;;;5050641;28;20195;-57
2023/02/20 07:33:50;;;;;;;4.20;3.23;;;8.20;99.90;;;;;;5050455;28;20581;-58
2023/02/20 07:36:16;;;;;;;4.57;3.07;;;;;;;;;;5050283;28;20179;-59
2023/02/20 07:38:42;;;;;;;3.80;2.77;;;7.90;99.90;;;;;;5032437;28;20187;-57
2023/02/20 07:41:08;;;;;;;4.10;3.10;;;7.90;99.90;;;;;;5050435;28;20199;-57
2023/02/20 07:43:34;;;;;;;3.77;2.90;;;;;;;;;;5050705;28;20175;-57
2023/02/20 07:46:00;;;;;;;3.90;2.97;;;;;;;;;;5050471;28;20204;-56
2023/02/20 07:48:26;;;;;;;5.43;3.10;;;;;;;;;;5050110;28;20256;-58
2023/02/20 07:50:53;;;;;;;3.97;2.87;;;;;;;;;;5050217;28;20589;-57
2023/02/20 07:53:20;;;;;;;6.37;3.30;;;7.90;99.90;;;;;;5049492;28;20214;-58
2023/02/20 07:55:45;;;;;;;5.77;3.40;;;8.00;99.90;;;;;;5050441;28;20186;-57
2023/02/20 07:58:11;;;;;;;5.67;3.37;;;7.70;99.90;;;;;;5050174;28;20658;-59
2023/02/20 08:00:37;;;;;;;4.10;3.23;;;;;;;;;;5050154;28;20226;-57
2023/02/20 08:03:03;;;;;;;5.07;3.03;;;;;;;;;;5049429;28;20198;-58
2023/02/20 08:05:29;;;;;;;6.53;3.13;;;;;;;;;;5050265;28;20191;-58
2023/02/20 08:07:55;;;;;;;5.33;3.03;;;8.00;99.90;;;;;;5049932;28;20645;-59
2023/02/20 08:10:23;;;;;;;6.63;3.07;;;8.00;99.90;;;;;;5050345;28;20242;-58
2023/02/20 08:12:50;;;;;;;4.50;3.33;;;8.30;99.90;;;;;;5050142;28;20279;-55
2023/02/20 08:15:20;;;;;;;7.10;3.03;;;8.00;99.90;;;;;;5050138;28;20203;-58
2023/02/20 08:17:46;;;;;;;4.67;3.20;;;;;;;;;;5049281;28;20185;-57
2023/02/20 08:20:13;;;;;;;5.57;3.30;;;8.20;99.90;;;;;;5050162;28;20199;-58
2023/02/20 08:22:39;;;;;;;4.67;3.10;;;8.20;99.90;;;;;;5050174;28;20576;-58
2023/02/20 08:25:05;;;;;;;3.13;2.80;;;8.30;99.90;;;;;;5050147;28;20229;-56
2023/02/20 08:27:31;;;;;;;4.33;3.10;;;8.90;99.90;;;;;;5049642;28;20714;-56
2023/02/20 08:29:57;;;;;;;5.57;3.20;;;8.70;99.90;;;;;;5052020;28;21323;-58
2023/02/20 08:32:23;;;;;;;4.63;2.80;;;;;;;;;;5053226;28;20638;-57
2023/02/20 08:34:49;;;;;;;4.07;2.80;;;;;;;;;;5035070;28;20182;-54
2023/02/20 08:37:15;;;;;;;4.30;3.00;;;9.10;99.90;;;;;;5053188;28;20179;-56
2023/02/20 08:39:41;;;;;;;4.43;3.10;;;;;;;;;;5053480;28;20255;-57
2023/02/20 08:42:07;;;;;;;3.87;2.70;;;;;;;;;;5053527;28;20183;-58
2023/02/20 08:44:33;;;;;;;4.87;3.00;;;;;;;;;;5053642;28;20317;-55
2023/02/20 08:46:59;;;;;;;3.13;2.73;;;;;;;;;;5053071;28;20179;-58
2023/02/20 08:49:25;;;;;;;4.97;2.80;;;8.60;99.90;;;;;;5052656;28;20206;-56
2023/02/20 08:51:54;;;;;;;4.57;3.40;;;8.70;99.90;;;;;;5053010;28;20179;-58
2023/02/20 08:54:20;;;;;;;5.30;2.67;;;8.60;99.90;;;;;;5053083;28;20183;-56
2023/02/20 08:56:46;;;;;;;5.37;2.80;;;8.90;99.90;;;;;;5053286;28;20586;-55
2023/02/20 08:59:12;;;;;;;5.17;3.27;;;;;;;;;;5053344;28;20270;-60
2023/02/20 09:01:41;;;;;;;3.67;2.73;;;9.10;99.90;;;;;;5053126;28;20218;-58
2023/02/20 09:04:07;;;;;;;5.03;3.13;;;8.50;99.90;;;;;;5053359;28;20183;-57
2023/02/20 09:06:33;;;;;;;3.37;2.73;;;;;;;;;;5053047;28;20183;-57
2023/02/20 09:08:59;;;;;;;5.40;3.43;;;7.90;99.90;;;;;;5052916;28;20203;-57
2023/02/20 09:11:25;;;;;;;4.50;3.03;;;8.60;99.90;;;;;;5053182;28;20206;-57
2023/02/20 09:13:51;;;;;;;6.53;3.30;;;9.30;99.90;;;;;;5052915;28;20190;-58
2023/02/20 09:16:19;;;;;;;4.87;3.20;;;8.80;99.90;;;;;;5053305;28;20195;-59
2023/02/20 09:18:45;;;;;;;3.87;3.13;;;8.70;99.90;;;;;;5051458;28;20186;-56
2023/02/20 09:21:12;;;;;;;5.70;3.10;;;8.90;99.90;;;;;;5052897;28;20217;-57
2023/02/20 09:23:39;;;;;;;3.53;3.10;;;;;;;;;;5052824;28;20198;-59
2023/02/20 09:26:05;;;;;;;3.23;2.93;;;8.60;99.90;;;;;;5052807;28;20650;-58
2023/02/20 09:28:31;;;;;;;4.97;2.80;;;8.40;99.90;;;;;;5052645;28;20207;-58
2023/02/20 09:30:59;;;;;;;4.13;2.87;;;8.50;99.90;;;;;;5052735;28;20217;-58
2023/02/20 09:33:25;;;;;;;5.50;2.90;;;8.90;99.90;;;;;;5052143;28;20218;-58
2023/02/20 09:35:51;;;;;;;3.80;2.80;;;8.90;99.90;;;;;;5052755;28;20179;-58
2023/02/20 09:38:17;;;;;;;4.13;2.60;;;9.50;99.90;;;;;;5053134;28;20183;-57
2023/02/20 09:40:48;;;;;;;4.57;3.00;;;9.20;99.90;;;;;;5052271;28;20214;-58
2023/02/20 09:43:14;;;;;;;4.70;2.70;;;;;;;;;;5052891;28;20701;-59
2023/02/20 09:46:14;;;;;;;6.37;3.23;;;9.60;99.90;;;;;;5052615;28;20190;-58
2023/02/20 09:48:40;;;;;;;4.53;2.90;;;;;;;;;;5047579;28;20335;-58
2023/02/20 09:51:13;;;;;;;5.63;3.03;;;9.30;99.90;;;;;;5050581;28;20203;-58
2023/02/20 09:53:39;;;;;;;4.97;3.30;;;;;;;;;;5050724;28;20186;-59
2023/02/20 09:56:11;;;;;;;6.77;3.37;;;9.50;99.90;;;;;;5050305;28;20527;-57
2023/02/20 09:58:48;;;;;;;7.13;3.27;;;9.70;99.90;;;;;;5051194;28;20297;-59
2023/02/20 10:01:17;;;;;;;4.93;2.90;;;9.50;99.90;;;;;;5051109;28;20210;-59
2023/02/20 10:03:43;;;;;;;5.50;3.00;;;;;;;;;;5051833;28;20175;-58
2023/02/20 10:06:18;;;;;;;4.60;2.87;;;9.50;99.90;;;;;;5034124;28;20680;-57
2023/02/20 10:08:47;;;;;;;3.47;2.70;;;9.70;99.90;;;;;;5034070;28;20218;-56
2023/02/20 10:11:46;;;;;;;4.40;2.63;;;10.00;99.90;;;;;;5050925;28;20187;-54
2023/02/20 10:14:30;;;;;;;5.33;2.77;;;10.00;99.90;;;;;;5047286;28;20191;-57
2023/02/20 10:17:27;;;;;;;4.90;2.60;;;10.10;99.90;;;;;;5050330;28;20178;-58
2023/02/20 10:20:23;;;;;;;3.90;2.80;;;10.10;99.90;;;;;;5046736;28;20211;-55
2023/02/20 10:23:26;;;;;;;4.63;3.10;;;10.60;99.90;;;;;;5038481;28;20191;-58
2023/02/20 10:25:56;;;;;;;3.33;2.53;;;11.10;99.90;;;;;;5049469;28;20592;-56
2023/02/20 10:28:22;;;;;;;4.17;2.60;;;11.10;99.90;;;;;;5051187;28;20199;-58
2023/02/20 10:30:56;;;;;;;4.67;2.67;;;8.60;99.90;;;;;;5051424;28;20291;-58
2023/02/20 10:33:37;;;;;;;5.30;2.80;;;12.60;99.90;;;;;;5051505;28;20617;-55
2023/02/20 10:36:17;;;;;;;6.27;2.87;;;13.60;99.90;;;;;;5051177;28;20186;-56
2023/02/20 10:38:49;;;;;;;2.80;2.17;;;14.20;99.90;;;;;;5051409;28;20220;-57
2023/02/20 10:41:41;;;;;;;3.20;2.37;;;14.80;99.90;;;;;;5051408;28;20222;-56
2023/02/20 10:44:15;;;;;;;4.60;2.50;;;14.80;99.90;;;;;;5051290;28;20266;-59
2023/02/20 10:46:57;;;;;;;2.93;2.23;;;15.80;99.90;;;;;;5051353;28;20171;-55
2023/02/20 10:49:42;;;;;;;4.77;2.73;;;16.30;99.90;;;;;;5050358;28;20183;-56
2023/02/20 10:52:13;;;;;;;2.67;2.20;;;16.90;99.90;;;;;;5050513;28;20206;-57
2023/02/20 10:54:44;;;;;;;3.13;2.30;;;17.10;99.90;;;;;;5051387;28;20183;-55
2023/02/20 10:57:18;;;;;;;2.90;2.17;;;18.20;99.90;;;;;;5050952;28;20172;-58
2023/02/20 11:00:04;;;;;;;3.22;2.22;;;18.50;97.70;;;;;;5032855;28;20173;-56
2023/02/20 11:02:34;;;;;;;4.90;2.50;;;18.60;96.40;;;;;;5050897;28;20168;-57
2023/02/20 11:05:06;;;;;;;3.13;2.47;;;18.80;97.40;;;;;;5050771;28;20169;-54
2023/02/20 11:07:32;;;;;;;4.35;2.30;;;18.70;99.90;;;;;;5050702;28;20795;-59
2023/02/20 11:09:58;;;;;;;5.00;2.42;;;;;;;;;;5050752;28;20202;-58
2023/02/20 11:12:24;;;;;;;3.03;2.13;;;;;;;;;;5051052;28;20244;-55
2023/02/20 11:14:52;;;;;;;3.25;2.17;;;19.10;98.40;;;;;;5050840;28;20549;-55
2023/02/20 11:17:25;;;;;;;4.63;2.60;;;19.00;99.90;;;;;;5050440;28;20198;-57
2023/02/20 11:19:56;;;;;;;5.32;2.58;;;19.20;99.90;;;;;;5049901;28;20285;-55
2023/02/20 11:22:37;;;;;;;3.50;2.25;;;18.80;95.30;;;;;;5050884;28;20250;-55
2023/02/20 11:25:26;;;;;;;3.42;2.25;;;18.40;99.90;;;;;;5050715;28;20234;-58
2023/02/20 11:27:59;;;;;;;2.50;2.30;;;19.10;93.80;;;;;;5050278;28;20199;-54
2023/02/20 11:30:31;;;;;;;3.28;2.40;;;18.90;99.90;;;;;;5050748;28;20198;-55
2023/02/20 11:33:11;;;;;;;5.28;2.53;;;18.90;98.00;;;;;;5049819;28;20191;-55
2023/02/20 11:35:38;;;;;;;2.50;2.25;;;19.20;99.90;;;;;;5050561;28;20250;-56
2023/02/20 11:38:18;;;;;;;5.43;2.33;;;19.20;93.70;;;;;;5050153;28;20187;-56
2023/02/20 11:41:06;;;;;;;3.25;2.30;;;19.70;99.90;;;;;;5050408;28;20194;-55
2023/02/20 11:43:38;;;;;;;2.92;1.90;;;19.50;93.20;;;;;;5008243;28;20259;-57
2023/02/20 11:46:17;;;;;;;2.20;1.83;;;19.10;97.60;;;;;;5008247;28;20595;-54
2023/02/20 11:49:10;;;;;;;6.00;2.35;;;18.70;95.80;;;;;;5007607;28;20287;-55
2023/02/20 11:51:44;;;;;;;3.25;2.50;;;18.60;93.80;;;;;;5007333;28;20292;-56
2023/02/20 11:54:16;;;;;;;4.38;2.30;;;17.20;99.90;;;;;;5008194;28;20189;-55
2023/02/20 11:57:05;;;;;;;5.03;2.83;;;17.30;94.40;;;;;;5008094;28;20181;-57
2023/02/20 11:59:37;;;;;;;3.75;2.20;;;16.90;97.10;;;;;;5008529;28;20181;-55
2023/02/20 12:02:29;;;;;;;3.65;2.60;;;17.40;95.10;;;;;;5053748;23;20224;-58
2023/02/20 12:05:13;;;;;;;2.92;2.30;;;17.30;98.70;;;;;;5028685;28;20197;-58
2023/02/20 12:07:55;;;;;;;2.97;2.22;;;18.10;99.90;;;;;;5029281;28;20198;-59
2023/02/20 12:10:36;;;;;;;3.20;2.47;;;17.50;99.90;;;;;;5033832;28;20184;-53
2023/02/20 12:13:03;;;;;;;2.88;2.28;;;17.00;99.90;;;;;;5034177;28;20173;-53
2023/02/20 12:15:29;;;;;;;2.30;2.08;;;16.50;99.90;;;;;;5034333;28;20182;-52
2023/02/20 12:18:04;;;;;;;2.90;2.22;;;16.30;99.90;;;;;;5031894;28;20265;-53
2023/02/20 12:20:30;;;;;;;2.10;1.90;;;17.10;99.90;;;;;;5014187;28;20721;-52
2023/02/20 12:23:26;;;;;;;5.35;2.80;;;16.90;97.60;;;;;;5014304;28;20176;-53
2023/02/20 12:26:06;;;;;;;2.65;2.30;;;16.90;95.50;;;;;;5014358;28;20185;-56
2023/02/20 12:28:46;;;;;;;4.57;2.63;;;16.20;96.50;;;;;;5014120;28;20197;-55
2023/02/20 12:31:33;;;;;;;3.17;2.23;;;15.30;99.90;;;;;;5014193;28;20235;-52
2023/02/20 12:34:16;;;;;;;5.37;2.37;;;15.50;99.90;;;;;;5012612;28;20176;-53
2023/02/20 12:36:51;;;;;;;3.70;2.27;;;15.20;99.90;;;;;;5013613;28;20183;-55
2023/02/20 12:39:40;;;;;;;3.20;2.23;;;14.90;98.00;;;;;;5014212;28;20294;-54
2023/02/20 12:42:29;;;;;;;3.20;2.30;;;14.40;99.80;;;;;;5013819;28;20200;-54
2023/02/20 12:45:11;;;;;;;3.27;2.13;;;15.00;99.90;;;;;;5014078;28;20651;-55
2023/02/20 12:47:40;;;;;;;4.20;2.20;;;16.50;99.90;;;;;;5013748;28;20520;-54
2023/02/20 12:50:23;;;;;;;3.43;2.00;;;14.80;99.90;;;;;;5013945;28;20180;-54
2023/02/20 12:52:58;;;;;;;3.63;2.20;;;15.30;99.90;;;;;;5014055;28;20177;-53
2023/02/20 12:55:54;;;;;;;2.57;2.10;;;16.00;99.90;;;;;;5014023;28;20714;-52
2023/02/20 12:58:46;;;;;;;4.20;2.37;;;16.30;99.90;;;;;;5013650;28;20181;-53
2023/02/20 13:01:14;;;;;;;2.07;1.83;;;16.10;99.90;;;;;;5013506;28;20226;-53
2023/02/20 13:03:54;;;;;;;2.33;2.00;;;16.10;99.90;;;;;;5013639;28;20230;-51
2023/02/20 13:06:31;;;;;;;4.10;2.57;;;15.90;99.90;;;;;;5013625;28;20184;-54
2023/02/20 13:09:10;;;;;;;3.63;1.87;;;16.50;99.90;;;;;;5013082;28;20200;-52
2023/02/20 13:11:41;;;;;;;2.70;2.00;;;14.70;95.30;;;;;;5007888;28;20547;-55
2023/02/20 13:14:23;;;;;;;2.97;2.30;;;16.60;95.00;;;;;;5013585;28;20180;-56
2023/02/20 13:17:18;;;;;;;3.10;1.53;;;16.90;99.90;;;;;;5012756;28;20636;-56
2023/02/20 13:19:53;;;;;;;2.27;1.70;;;16.90;95.90;;;;;;5012230;28;20173;-58
2023/02/20 13:22:19;;;;;;;2.67;1.50;;;16.80;99.90;;;;;;5013362;28;20200;-54
2023/02/20 13:24:45;;;;;;;1.67;1.40;;;16.90;99.90;;;;;;5013326;28;20199;-54
2023/02/20 13:27:29;;;;;;;3.40;2.10;;;16.90;96.00;;;;;;5012874;28;20193;-55
2023/02/20 13:30:01;;;;;;;2.93;1.70;;;16.40;99.90;;;;;;5012932;28;20759;-54
2023/02/20 13:32:31;;;;;;;2.30;1.93;;;17.10;94.50;;;;;;5012712;28;20189;-57
2023/02/20 13:35:51;;;;;;;2.67;1.60;;;17.40;94.70;;;;;;5012367;28;20181;-57
2023/02/20 13:38:20;;;;;;;3.23;1.90;;;17.50;94.00;;;;;;4950883;29;20224;-57
2023/02/20 13:40:55;;;;;;;2.77;1.67;;;16.80;99.90;;;;;;4952135;29;20225;-57
2023/02/20 13:43:25;;;;;;;2.67;1.83;;;16.70;99.90;;;;;;4952157;29;20190;-53
2023/02/20 13:46:02;;;;;;;3.77;2.07;;;16.80;94.40;;;;;;4952192;29;20224;-55
2023/02/20 13:48:28;;;;;;;2.53;1.73;;;16.70;99.90;;;;;;4951876;29;20195;-57
2023/02/20 13:51:19;;;;;;;3.23;1.93;;;16.50;94.00;;;;;;4952073;29;20202;-58
2023/02/20 13:54:11;;;;;;;2.40;1.67;;;16.10;97.50;;;;;;4952222;29;20210;-52
2023/02/20 13:56:55;;;;;;;3.50;1.80;;;16.60;99.90;;;;;;4952054;29;20582;-53
2023/02/20 13:59:21;;;;;;;2.97;1.60;;;16.40;99.90;;;;;;4951748;29;20276;-55